createdAt,value
2018-04-25T00:01:54.313Z,14.40
2018-04-25T00:04:21.917Z,13.60
2018-04-25T00:06:49.641Z,13.10
2018-04-25T00:09:17.251Z,12.70
2018-04-25T00:11:44.843Z,13.20
2018-04-25T00:14:12.425Z,13.93
2018-04-25T00:16:40.067Z,12.80
2018-04-25T00:19:07.668Z,12.60
2018-04-25T00:21:35.272Z,12.97
2018-04-25T00:24:02.845Z,12.97
2018-04-25T00:26:30.528Z,12.00
2018-04-25T00:28:58.105Z,12.97
2018-04-25T00:31:25.748Z,11.97
2018-04-25T00:33:53.331Z,11.90
2018-04-25T00:36:20.916Z,12.37
2018-04-25T00:38:48.498Z,12.63
2018-04-25T00:41:16.956Z,11.43
2018-04-25T00:43:44.519Z,11.20
2018-04-25T00:46:12.120Z,11.60
2018-04-25T00:48:39.686Z,11.10
2018-04-25T00:51:07.288Z,11.03
2018-04-25T00:53:34.862Z,10.67
2018-04-25T00:56:02.725Z,10.10
2018-04-25T00:58:30.320Z,10.33
2018-04-25T01:00:57.868Z,9.80
2018-04-25T01:03:26.215Z,10.57
2018-04-25T01:05:53.795Z,10.80
2018-04-25T01:08:21.390Z,10.33
2018-04-25T01:10:49.001Z,10.47
2018-04-25T01:13:16.611Z,9.90
2018-04-25T01:15:44.196Z,9.83
2018-04-25T01:18:11.779Z,10.43
2018-04-25T01:20:39.359Z,10.13
2018-04-25T01:23:09.604Z,9.27
2018-04-25T01:25:38.678Z,9.40
2018-04-25T01:28:09.641Z,10.20
2018-04-25T01:30:45.607Z,9.47
2018-04-25T01:33:29.003Z,9.40
2018-04-25T01:35:58.323Z,9.73
2018-04-25T01:38:27.453Z,9.37
2018-04-25T01:40:55.002Z,8.13
2018-04-25T01:43:23.329Z,8.33
2018-04-25T01:49:03.720Z,8.47
2018-04-25T01:51:43.039Z,8.47
2018-04-25T01:54:22.372Z,7.50
2018-04-25T01:57:01.584Z,7.73
2018-04-25T01:59:41.751Z,7.60
2018-04-25T02:02:08.815Z,8.50
2018-04-25T02:04:36.404Z,8.20
2018-04-25T02:07:03.984Z,9.40
2018-04-25T02:09:32.949Z,8.23
2018-04-25T02:12:00.577Z,7.40
2018-04-25T02:14:28.173Z,8.53
2018-04-25T02:16:55.779Z,7.60
2018-04-25T02:19:23.413Z,8.10
2018-04-25T02:21:51.882Z,8.20
2018-04-25T02:24:19.479Z,7.50
2018-04-25T02:26:47.059Z,7.00
2018-04-25T02:29:14.654Z,7.50
2018-04-25T02:31:42.261Z,8.10
2018-04-25T02:34:09.849Z,8.10
2018-04-25T02:36:37.441Z,8.20
2018-04-25T02:39:04.997Z,7.87
2018-04-25T02:41:32.645Z,7.70
2018-04-25T02:44:00.225Z,6.80
2018-04-25T02:46:27.818Z,7.00
2018-04-25T02:48:56.149Z,7.03
2018-04-25T02:51:23.805Z,7.73
2018-04-25T02:53:51.382Z,8.40
2018-04-25T02:56:18.970Z,8.43
2018-04-25T02:58:46.583Z,8.27
2018-04-25T03:01:14.172Z,7.53
2018-04-25T03:03:41.768Z,8.17
2018-04-25T03:06:10.169Z,8.20
2018-04-25T03:08:37.753Z,9.07
2018-04-25T03:11:05.406Z,9.40
2018-04-25T03:13:33.001Z,9.43
2018-04-25T03:16:00.810Z,9.97
2018-04-25T03:18:29.148Z,9.83
2018-04-25T03:20:56.728Z,11.07
2018-04-25T03:23:24.310Z,9.33
2018-04-25T03:25:51.925Z,11.87
2018-04-25T03:28:19.561Z,9.23
2018-04-25T03:30:47.268Z,10.30
2018-04-25T03:33:14.956Z,11.20
2018-04-25T03:35:42.571Z,12.83
2018-04-25T03:38:10.187Z,11.07
2018-04-25T03:40:38.536Z,9.57
2018-04-25T03:43:06.149Z,10.20
2018-04-25T03:45:33.925Z,9.23
2018-04-25T03:48:01.545Z,9.63
2018-04-25T03:50:29.913Z,10.10
2018-04-25T03:52:58.284Z,9.60
2018-04-25T03:55:25.872Z,10.00
2018-04-25T03:57:54.280Z,10.67
2018-04-25T04:00:21.880Z,10.37
2018-04-25T04:02:49.433Z,10.40
2018-04-25T04:05:17.012Z,9.80
2018-04-25T04:07:44.647Z,9.90
2018-04-25T04:10:12.252Z,10.90
2018-04-25T04:12:40.713Z,10.93
2018-04-25T04:15:08.288Z,10.00
2018-04-25T04:17:36.654Z,10.20
2018-04-25T04:20:04.235Z,10.80
2018-04-25T04:22:32.667Z,12.33
2018-04-25T04:25:00.257Z,13.40
2018-04-25T04:27:27.862Z,10.90
2018-04-25T04:29:55.488Z,11.03
2018-04-25T04:32:23.074Z,12.47
2018-04-25T04:34:50.639Z,12.07
2018-04-25T04:37:18.256Z,10.80
2018-04-25T04:39:45.837Z,12.63
2018-04-25T04:42:14.209Z,12.20
2018-04-25T04:44:42.573Z,11.73
2018-04-25T04:47:10.262Z,11.40
2018-04-25T04:49:38.727Z,12.60
2018-04-25T04:52:07.008Z,11.40
2018-04-25T04:54:34.610Z,10.30
2018-04-25T04:57:02.198Z,11.60
2018-04-25T04:59:30.604Z,11.73
2018-04-25T05:01:58.186Z,9.93
2018-04-25T05:04:25.792Z,10.17
2018-04-25T05:06:53.428Z,11.67
2018-04-25T05:09:21.025Z,11.20
2018-04-25T05:11:48.640Z,11.00
2018-04-25T05:14:17.085Z,11.40
2018-04-25T05:16:44.716Z,11.00
2018-04-25T05:19:12.295Z,10.10
2018-04-25T05:21:39.909Z,9.40
2018-04-25T05:24:08.843Z,9.43
2018-04-25T05:26:36.461Z,9.30
2018-04-25T05:29:04.836Z,9.77
2018-04-25T05:31:33.180Z,8.10
2018-04-25T05:34:00.783Z,6.13
2018-04-25T05:36:29.128Z,7.17
2018-04-25T05:38:56.758Z,7.70
2018-04-25T05:41:24.441Z,6.73
2018-04-25T05:43:52.063Z,6.60
2018-04-25T05:46:19.669Z,6.83
2018-04-25T05:48:47.276Z,7.10
2018-04-25T05:51:15.000Z,7.47
2018-04-25T05:53:42.594Z,6.70
2018-04-25T05:56:11.717Z,6.17
2018-04-25T05:58:39.300Z,7.50
2018-04-25T06:01:07.693Z,7.10
2018-04-25T06:03:35.292Z,5.30
2018-04-25T06:06:03.623Z,5.27
2018-04-25T06:08:31.218Z,5.93
2018-04-25T06:10:58.895Z,5.77
2018-04-25T06:13:27.232Z,5.50
2018-04-25T06:15:54.825Z,6.03
2018-04-25T06:18:23.166Z,5.90
2018-04-25T06:20:50.769Z,4.90
2018-04-25T06:23:18.370Z,4.60
2018-04-25T06:25:46.722Z,6.10
2018-04-25T06:28:15.087Z,6.80
2018-04-25T06:30:43.447Z,5.70
2018-04-25T06:33:11.388Z,5.77
2018-04-25T06:35:38.980Z,5.53
2018-04-25T06:38:07.317Z,5.97
2018-04-25T06:40:34.928Z,4.10
2018-04-25T06:43:03.279Z,4.13
2018-04-25T06:45:31.072Z,4.93
2018-04-25T06:47:58.770Z,9.00
2018-04-25T06:50:26.335Z,4.80
2018-04-25T06:52:53.960Z,5.60
2018-04-25T06:55:21.539Z,4.80
2018-04-25T06:57:50.598Z,4.83
2018-04-25T07:00:18.201Z,6.20
2018-04-25T07:02:45.850Z,6.57
2018-04-25T07:05:13.482Z,6.40
2018-04-25T07:07:41.334Z,6.90
2018-04-25T07:10:08.932Z,7.87
2018-04-25T07:12:38.819Z,6.90
2018-04-25T07:15:06.388Z,6.23
2018-04-25T07:17:33.999Z,6.13
2018-04-25T07:20:01.625Z,6.77
2018-04-25T07:22:29.220Z,7.47
2018-04-25T07:24:56.853Z,9.07
2018-04-25T07:27:24.455Z,9.43
2018-04-25T07:29:54.030Z,9.10
2018-04-25T07:32:21.608Z,7.97
2018-04-25T07:34:49.213Z,8.50
2018-04-25T07:37:16.787Z,8.30
2018-04-25T07:39:44.407Z,9.33
2018-04-25T07:42:12.008Z,7.70
2018-04-25T07:44:39.620Z,7.17
2018-04-25T07:47:08.891Z,5.93
2018-04-25T07:49:36.477Z,6.00
2018-04-25T07:52:04.827Z,7.90
2018-04-25T07:54:32.442Z,7.40
2018-04-25T07:57:00.013Z,7.57
2018-04-25T07:59:28.523Z,7.50
2018-04-25T08:01:56.159Z,7.60
2018-04-25T08:04:23.728Z,8.40
2018-04-25T08:06:51.332Z,8.23
2018-04-25T08:09:19.768Z,9.20
2018-04-25T08:11:48.120Z,7.70
2018-04-25T08:14:28.104Z,7.30
2018-04-25T08:17:07.572Z,7.40
2018-04-25T08:19:47.931Z,9.13
2018-04-25T08:22:15.544Z,9.10
2018-04-25T08:24:43.127Z,8.70
2018-04-25T08:27:11.145Z,7.77
2018-04-25T08:29:39.513Z,8.50
2018-04-25T08:32:07.099Z,8.23
2018-04-25T08:34:36.331Z,8.70
2018-04-25T08:37:03.985Z,8.30
2018-04-25T08:39:31.767Z,9.47
2018-04-25T08:41:59.527Z,8.17
2018-04-25T08:44:27.333Z,8.80
2018-04-25T08:46:54.944Z,10.00
2018-04-25T08:49:22.968Z,9.47
2018-04-25T08:51:53.478Z,10.20
2018-04-25T08:54:21.077Z,9.80
2018-04-25T08:56:49.429Z,9.03
2018-04-25T08:59:17.152Z,11.00
2018-04-25T09:01:44.683Z,10.43
2018-04-25T09:04:13.064Z,10.13
2018-04-25T09:06:40.751Z,10.40
2018-04-25T09:09:08.337Z,9.83
2018-04-25T09:11:35.943Z,10.97
2018-04-25T09:14:04.319Z,12.27
2018-04-25T09:16:32.745Z,12.10
2018-04-25T09:19:00.353Z,11.47
2018-04-25T09:21:28.687Z,11.27
2018-04-25T09:23:56.405Z,10.90
2018-04-25T09:26:23.998Z,11.77
2018-04-25T09:28:51.796Z,12.80
2018-04-25T09:31:19.393Z,11.43
2018-04-25T09:33:48.085Z,10.50
2018-04-25T09:36:16.428Z,11.40
2018-04-25T09:38:44.065Z,10.70
2018-04-25T09:41:11.617Z,10.20
2018-04-25T09:43:39.176Z,9.40
2018-04-25T09:46:06.805Z,9.27
2018-04-25T09:48:35.179Z,8.17
2018-04-25T09:51:02.806Z,7.57
2018-04-25T09:53:30.400Z,8.53
2018-04-25T09:55:58.004Z,7.50
2018-04-25T09:58:25.573Z,6.60
2018-04-25T10:00:56.963Z,6.53
2018-04-25T10:03:25.251Z,6.73
2018-04-25T10:05:52.902Z,7.50
2018-04-25T10:08:20.565Z,7.20
2018-04-25T10:10:48.223Z,8.57
2018-04-25T10:13:15.759Z,8.37
2018-04-25T10:15:43.380Z,6.70
2018-04-25T10:18:10.982Z,7.03
2018-04-25T10:20:38.603Z,6.73
2018-04-25T10:23:06.183Z,7.37
2018-04-25T10:25:35.020Z,7.40
2018-04-25T10:28:02.631Z,7.10
2018-04-25T10:30:30.211Z,6.70
2018-04-25T10:32:57.824Z,6.17
2018-04-25T10:35:26.187Z,7.00
2018-04-25T10:37:53.777Z,6.80
2018-04-25T10:40:22.508Z,7.30
2018-04-25T10:42:50.131Z,6.70
2018-04-25T10:45:18.483Z,7.37
2018-04-25T10:47:46.073Z,6.80
2018-04-25T10:50:14.417Z,8.00
2018-04-25T10:52:42.429Z,8.13
2018-04-25T10:55:10.784Z,8.30
2018-04-25T10:57:39.850Z,8.37
2018-04-25T11:00:07.434Z,8.13
2018-04-25T11:02:35.585Z,8.17
2018-04-25T11:05:03.197Z,7.23
2018-04-25T11:07:31.723Z,7.80
2018-04-25T11:09:59.296Z,7.57
2018-04-25T11:12:27.669Z,7.17
2018-04-25T11:14:55.255Z,9.23
2018-04-25T11:17:23.616Z,8.27
2018-04-25T11:19:51.247Z,9.20
2018-04-25T11:22:18.852Z,8.60
2018-04-25T11:24:46.453Z,7.93
2018-04-25T11:27:14.073Z,9.87
2018-04-25T11:29:41.713Z,12.00
2018-04-25T11:32:10.157Z,10.23
2018-04-25T11:34:37.963Z,9.93
2018-04-25T11:37:05.533Z,10.10
2018-04-25T11:39:33.148Z,10.27
2018-04-25T11:42:01.707Z,9.83
2018-04-25T11:44:29.321Z,7.53
2018-04-25T11:46:57.772Z,7.93
2018-04-25T11:49:25.830Z,9.33
2018-04-25T11:51:54.197Z,9.83
2018-04-25T11:54:21.776Z,8.57
2018-04-25T11:56:50.111Z,10.27
2018-04-25T11:59:17.681Z,9.27
2018-04-25T12:01:45.274Z,10.33
2018-04-25T12:04:14.379Z,9.87
2018-04-25T12:06:43.167Z,9.13
2018-04-25T12:09:10.771Z,10.00
2018-04-25T12:11:38.336Z,11.60
2018-04-25T12:14:05.915Z,11.07
2018-04-25T12:16:33.581Z,12.47
2018-04-25T12:19:01.170Z,10.80
2018-04-25T12:21:29.554Z,8.70
2018-04-25T12:23:57.895Z,9.23
2018-04-25T12:26:25.582Z,9.10
2018-04-25T12:28:53.993Z,8.07
2018-04-25T12:31:22.509Z,8.63
2018-04-25T12:33:50.801Z,8.70
2018-04-25T12:36:18.398Z,8.77
2018-04-25T12:38:46.740Z,9.23
2018-04-25T12:41:14.348Z,9.93
2018-04-25T12:43:41.952Z,9.07
2018-04-25T12:46:09.580Z,8.60
2018-04-25T12:48:37.159Z,7.70
2018-04-25T12:51:04.790Z,6.97
2018-04-25T12:53:33.115Z,7.53
2018-04-25T12:56:01.332Z,10.00
2018-04-25T12:58:29.729Z,9.13
2018-04-25T13:00:57.355Z,9.43
2018-04-25T13:03:24.925Z,8.07
2018-04-25T13:05:53.349Z,9.27
2018-04-25T13:08:20.971Z,7.90
2018-04-25T13:10:49.356Z,8.20
2018-04-25T13:13:17.757Z,10.70
2018-04-25T13:15:45.498Z,9.67
2018-04-25T13:18:13.851Z,11.73
2018-04-25T13:20:41.453Z,9.30
2018-04-25T13:23:09.079Z,9.67
2018-04-25T13:25:37.108Z,8.90
2018-04-25T13:28:04.677Z,10.03
2018-04-25T13:30:32.324Z,10.20
2018-04-25T13:32:59.935Z,8.87
2018-04-25T13:35:27.539Z,9.53
2018-04-25T13:37:55.146Z,8.20
2018-04-25T13:40:22.753Z,10.00
2018-04-25T13:42:50.332Z,9.40
2018-04-25T13:45:17.930Z,9.57
2018-04-25T13:47:45.530Z,11.47
2018-04-25T13:50:13.973Z,9.63
2018-04-25T13:52:41.625Z,9.97
2018-04-25T13:55:09.184Z,10.20
2018-04-25T13:57:36.782Z,10.63
2018-04-25T14:00:04.384Z,8.60
2018-04-25T14:02:32.044Z,9.90
2018-04-25T14:04:59.623Z,9.20
2018-04-25T14:07:27.225Z,10.77
2018-04-25T14:09:54.806Z,9.93
2018-04-25T14:12:23.192Z,11.20
2018-04-25T14:14:51.628Z,9.20
2018-04-25T14:17:19.243Z,8.77
2018-04-25T14:19:46.820Z,9.63
2018-04-25T14:22:14.511Z,8.27
2018-04-25T14:24:42.112Z,8.30
2018-04-25T14:27:10.512Z,8.50
2018-04-25T14:29:38.112Z,10.20
2018-04-25T14:32:05.776Z,10.23
2018-04-25T14:34:34.157Z,8.63
2018-04-25T14:37:01.779Z,9.10
2018-04-25T14:39:29.388Z,8.30
2018-04-25T14:41:58.321Z,7.97
2018-04-25T14:44:26.673Z,8.53
2018-04-25T14:46:54.298Z,8.40
2018-04-25T14:49:21.916Z,9.20
2018-04-25T14:51:49.498Z,7.90
2018-04-25T14:54:17.140Z,8.73
2018-04-25T14:56:45.480Z,8.43
2018-04-25T14:59:13.074Z,7.83
2018-04-25T15:01:41.417Z,7.20
2018-04-25T15:04:09.024Z,7.07
2018-04-25T15:06:37.415Z,7.37
2018-04-25T15:09:05.804Z,7.07
2018-04-25T15:11:33.433Z,7.63
2018-04-25T15:14:01.916Z,7.20
2018-04-25T15:16:29.461Z,7.73
2018-04-25T15:18:57.096Z,7.53
2018-04-25T15:21:24.692Z,7.33
2018-04-25T15:23:52.312Z,7.30
2018-04-25T15:26:19.932Z,6.60
2018-04-25T15:28:47.560Z,7.60
2018-04-25T15:31:15.296Z,6.20
2018-04-25T15:33:42.916Z,6.03
2018-04-25T15:36:10.537Z,5.90
2018-04-25T15:38:38.148Z,5.47
2018-04-25T15:41:06.640Z,5.57
2018-04-25T15:43:34.292Z,6.20
2018-04-25T15:46:02.676Z,7.23
2018-04-25T15:48:31.060Z,6.70
2018-04-25T15:50:59.410Z,6.63
2018-04-25T15:53:27.057Z,6.10
2018-04-25T15:55:54.699Z,7.20
2018-04-25T15:58:22.337Z,6.87
2018-04-25T16:00:49.964Z,7.30
2018-04-25T16:03:17.620Z,6.33
2018-04-25T16:05:45.299Z,9.13
2018-04-25T16:08:12.938Z,8.50
2018-04-25T16:10:40.568Z,6.00
2018-04-25T16:13:08.172Z,6.10
2018-04-25T16:15:36.177Z,6.80
2018-04-25T16:18:04.552Z,7.13
2018-04-25T16:20:32.137Z,6.20
2018-04-25T16:22:59.761Z,6.93
2018-04-25T16:25:28.177Z,5.47
2018-04-25T16:27:55.753Z,5.80
2018-04-25T16:30:23.446Z,6.30
2018-04-25T16:32:51.049Z,7.13
2018-04-25T16:35:18.649Z,6.37
2018-04-25T16:37:46.222Z,7.00
2018-04-25T16:40:13.812Z,7.83
2018-04-25T16:42:42.180Z,7.17
2018-04-25T16:45:09.965Z,7.20
2018-04-25T16:47:38.325Z,7.60
2018-04-25T16:50:05.959Z,7.00
2018-04-25T16:52:34.426Z,8.40
2018-04-25T16:55:02.047Z,7.00
2018-04-25T16:57:30.404Z,7.57
2018-04-25T16:59:58.043Z,8.00
2018-04-25T17:02:25.714Z,7.43
2018-04-25T17:04:53.348Z,7.50
2018-04-25T17:07:20.955Z,8.70
2018-04-25T17:09:48.603Z,8.03
2018-04-25T17:12:16.201Z,8.70
2018-04-25T17:14:44.640Z,7.90
2018-04-25T17:17:12.302Z,8.80
2018-04-25T17:19:39.896Z,9.93
2018-04-25T17:22:07.496Z,9.70
2018-04-25T17:24:35.141Z,8.90
2018-04-25T17:27:03.511Z,10.30
2018-04-25T17:29:31.887Z,10.90
2018-04-25T17:32:00.291Z,10.80
2018-04-25T17:34:27.893Z,12.70
2018-04-25T17:36:55.600Z,12.57
2018-04-25T17:39:23.126Z,10.77
2018-04-25T17:41:50.761Z,11.83
2018-04-25T17:44:18.389Z,11.23
2018-04-25T17:46:45.982Z,10.27
2018-04-25T17:49:13.692Z,12.23
2018-04-25T17:51:42.073Z,11.43
2018-04-25T17:54:10.463Z,10.97
2018-04-25T17:56:38.823Z,11.53
2018-04-25T17:59:06.424Z,11.07
2018-04-25T18:01:34.028Z,11.90
2018-04-25T18:04:01.660Z,11.40
2018-04-25T18:06:31.792Z,12.30
2018-04-25T18:09:00.174Z,10.60
2018-04-25T18:11:27.917Z,12.10
2018-04-25T18:13:55.468Z,11.10
2018-04-25T18:16:23.061Z,11.43
2018-04-25T18:18:50.712Z,10.90
2018-04-25T18:21:18.404Z,11.50
2018-04-25T18:23:46.063Z,11.40
2018-04-25T18:26:13.704Z,11.50
2018-04-25T18:28:41.387Z,12.27
2018-04-25T18:31:09.093Z,12.80
2018-04-25T18:33:37.473Z,12.30
2018-04-25T18:36:05.895Z,11.57
2018-04-25T18:38:33.641Z,12.60
2018-04-25T18:41:01.287Z,12.67
2018-04-25T18:43:29.898Z,11.70
2018-04-25T18:45:58.198Z,11.60
2018-04-25T18:48:26.584Z,11.50
2018-04-25T18:50:54.256Z,12.07
2018-04-25T18:53:21.890Z,11.50
2018-04-25T18:55:49.528Z,11.43
2018-04-25T18:58:17.896Z,11.70
2018-04-25T19:00:46.691Z,10.10
2018-04-25T19:03:14.343Z,10.90
2018-04-25T19:05:41.983Z,10.83
2018-04-25T19:08:10.434Z,13.13
2018-04-25T19:10:38.105Z,11.43
2018-04-25T19:13:05.738Z,11.70
2018-04-25T19:15:34.439Z,12.37
2018-04-25T19:18:02.025Z,11.10
2018-04-25T19:20:29.757Z,10.63
2018-04-25T19:22:58.147Z,11.10
2018-04-25T19:25:25.784Z,10.57
2018-04-25T19:27:53.511Z,10.83
2018-04-25T19:30:21.136Z,11.10
2018-04-25T19:32:49.145Z,11.70
2018-04-25T19:35:16.861Z,12.90
2018-04-25T19:37:44.544Z,10.80
2018-04-25T19:40:12.183Z,10.90
2018-04-25T19:42:39.809Z,12.20
2018-04-25T19:45:08.296Z,10.60
2018-04-25T19:47:36.748Z,11.40
2018-04-25T19:50:04.537Z,11.27
2018-04-25T19:52:33.317Z,11.90
2018-04-25T19:55:05.039Z,11.33
2018-04-25T19:57:32.809Z,11.40
2018-04-25T20:00:00.588Z,11.37
2018-04-25T20:02:28.202Z,10.80
2018-04-25T20:04:56.551Z,11.33
2018-04-25T20:07:24.187Z,10.60
2018-04-25T20:09:51.854Z,10.23
2018-04-25T20:12:19.464Z,10.50
2018-04-25T20:14:47.126Z,11.30
2018-04-25T20:17:14.763Z,11.37
2018-04-25T20:19:43.280Z,11.43
2018-04-25T20:22:10.900Z,10.07
2018-04-25T20:24:38.484Z,9.40
2018-04-25T20:27:06.832Z,9.97
2018-04-25T20:29:34.513Z,12.33
2018-04-25T20:32:03.221Z,10.10
2018-04-25T20:34:30.848Z,9.57
2018-04-25T20:36:58.475Z,10.07
2018-04-25T20:39:26.088Z,12.80
2018-04-25T20:41:54.472Z,12.57
2018-04-25T20:44:22.852Z,11.03
2018-04-25T20:46:50.469Z,11.73
2018-04-25T20:49:18.078Z,11.13
2018-04-25T20:51:46.507Z,11.97
2018-04-25T20:54:14.114Z,11.07
2018-04-25T20:56:41.772Z,11.63
2018-04-25T20:59:10.157Z,14.53
2018-04-25T21:01:37.812Z,12.60
2018-04-25T21:04:05.427Z,12.83
2018-04-25T21:06:33.082Z,10.10
2018-04-25T21:09:00.680Z,9.50
2018-04-25T21:11:28.284Z,9.10
2018-04-25T21:13:56.673Z,10.00
2018-04-25T21:16:24.286Z,10.87
2018-04-25T21:18:51.940Z,9.40
2018-04-25T21:21:19.525Z,9.57
2018-04-25T21:23:47.877Z,11.57
2018-04-25T21:26:15.477Z,10.87
2018-04-25T21:28:43.074Z,10.60
2018-04-25T21:31:10.677Z,12.47
2018-04-25T21:33:39.184Z,12.33
2018-04-25T21:36:07.692Z,12.37
2018-04-25T21:38:35.272Z,12.67
2018-04-25T21:41:03.723Z,13.30
2018-04-25T21:43:32.053Z,12.80
2018-04-25T21:45:59.664Z,12.80
2018-04-25T21:48:27.994Z,12.80
2018-04-25T21:50:55.566Z,13.03
2018-04-25T21:53:23.160Z,13.50
2018-04-25T21:55:51.488Z,13.37
2018-04-25T21:58:19.118Z,15.73
2018-04-25T22:00:46.686Z,12.93
2018-04-25T22:03:14.277Z,12.43
2018-04-25T22:05:41.924Z,12.50
2018-04-25T22:08:10.300Z,12.20
2018-04-25T22:10:37.893Z,12.33
2018-04-25T22:13:06.427Z,11.57
2018-04-25T22:15:34.064Z,10.07
2018-04-25T22:18:01.701Z,11.60
2018-04-25T22:20:29.345Z,10.43
2018-04-25T22:22:56.906Z,10.77
2018-04-25T22:25:24.528Z,11.47
2018-04-25T22:27:52.131Z,10.27
2018-04-25T22:30:19.771Z,11.73
2018-04-25T22:32:47.337Z,9.97
2018-04-25T22:35:14.959Z,11.57
2018-04-25T22:37:43.292Z,9.50
2018-04-25T22:40:10.886Z,9.73
2018-04-25T22:42:38.584Z,10.50
2018-04-25T22:45:06.247Z,10.30
2018-04-25T22:47:33.887Z,9.00
2018-04-25T22:50:02.347Z,8.30
2018-04-25T22:52:29.957Z,8.60
2018-04-25T22:54:57.577Z,8.40
2018-04-25T22:57:25.282Z,8.10
2018-04-25T22:59:52.886Z,9.10
2018-04-25T23:02:21.396Z,7.40
2018-04-25T23:04:49.856Z,7.07
2018-04-25T23:07:17.433Z,7.30
2018-04-25T23:09:45.020Z,7.90
2018-04-25T23:12:13.426Z,7.30
2018-04-25T23:14:41.020Z,6.73
2018-04-25T23:17:08.606Z,7.00
2018-04-25T23:19:36.183Z,7.27
2018-04-25T23:22:04.596Z,6.50
2018-04-25T23:24:32.188Z,7.10
2018-04-25T23:26:59.781Z,5.77
2018-04-25T23:29:28.140Z,5.60
2018-04-25T23:31:55.771Z,5.20
2018-04-25T23:34:23.374Z,4.80
2018-04-25T23:36:52.531Z,5.03
2018-04-25T23:39:20.133Z,5.43
2018-04-25T23:41:48.529Z,4.47
2018-04-25T23:44:16.112Z,4.43
2018-04-25T23:46:43.724Z,4.17
2018-04-25T23:49:11.336Z,4.47
2018-04-25T23:51:38.909Z,4.03
2018-04-25T23:54:09.209Z,4.30
2018-04-25T23:56:37.552Z,4.43
2018-04-25T23:59:05.192Z,3.87
